Huvudsida
METAR-TAF:

METAR-TAF

Flygplatser :

Khartoum, Sudan

latitud: 15-36N, longitud: 032-33E, höjd: 382 m

Aktuellt väderrapport

Denna rapport gjordes för 16 timmar och 3 minuter sedan, klockan 15:00 UTC
Vind 9 kt från nord
Temperatur 35°C
Fuktighet 10%
Tryck 1007 hPa
Sikt 10 km eller mer
Inga moln under 1 500 m eller inga cumulonimbus

METAR: HSSS 201500Z 35009KT CAVOK 35/M01 Q1007 NOSIG

Tid: 10:03 (07:03 UTC)

Väderprognos

Denna rapport gjordes för 20 timmar och 3 minuter sedan, klockan 11:00 UTC
Prognos gäller från 20 kl. 12 UTC till 21 kl. 18 UTC
Vind 6 kt från nord/nordost i byarna ända upp till 18 kt
Sikt 10 km eller mer
Inga moln under 1 500 m eller inga cumulonimbus
Temporärt
från 20 kl. 18 UTC till 20 kl. 21 UTC
Sikt: 6000 m
Klar himmel
Sannolikhet 30%
från 21 kl. 04 UTC till 21 kl. 07 UTC
Sikt: 6000 m
Klar himmel

TAF: HSSS 201100Z 2012/2118 03006G18KT CAVOK TEMPO 2018/2021 6000 SKC PROB30 2104/2107 6000 SKC

Aktuella väderrapporter och prognoser från 4000 flygplatser (METAR- och TAF-rapporter).

De tillgängliga stationerna syns som gula och röda prickar på kartan.

För musen över prickarna för att se namnen på stationerna.

Klicka sedan för att få väderrapporter och prognoser.

För att ändra kartan: Klicka på de gröna knapparna med ett svart kors på för att zooma in; den gröna knappen med ett streck på för att zooma ut; eller på de gröna pilarna för angränsande kartor.


METAR-TAF: